createdAt,value
2024-01-03T00:00:29.559Z,67.28
2024-01-03T00:02:57.832Z,66.99
2024-01-03T00:05:37.303Z,66.40
2024-01-03T00:08:13.168Z,66.06
2024-01-03T00:10:50.597Z,66.39
2024-01-03T00:13:49.329Z,66.02
2024-01-03T00:16:21.768Z,65.23
2024-01-03T00:18:51.308Z,65.38
2024-01-03T00:21:28.431Z,65.10
2024-01-03T00:24:00.271Z,65.89
2024-01-03T00:26:29.465Z,67.36
2024-01-03T00:28:57.657Z,68.70
2024-01-03T00:31:46.241Z,68.92
2024-01-03T00:34:22.145Z,70.89
2024-01-03T00:36:56.671Z,71.85
2024-01-03T00:39:31.728Z,71.91
2024-01-03T00:41:58.758Z,72.63
2024-01-03T00:44:25.505Z,73.68
2024-01-03T00:46:54.982Z,75.20
2024-01-03T00:49:22.277Z,75.86
2024-01-03T00:51:51.018Z,76.06
2024-01-03T00:54:20.207Z,76.67
2024-01-03T00:56:48.585Z,77.38
2024-01-03T00:59:16.722Z,77.47
2024-01-03T01:01:44.486Z,77.66
2024-01-03T01:04:13.218Z,77.55
2024-01-03T01:06:42.336Z,77.36
2024-01-03T01:09:09.993Z,77.37
2024-01-03T01:11:36.945Z,76.85
2024-01-03T01:14:04.018Z,76.72
2024-01-03T01:16:30.670Z,76.45
2024-01-03T01:18:57.296Z,75.99
2024-01-03T01:21:23.952Z,75.89
2024-01-03T01:23:50.478Z,75.52
2024-01-03T01:26:17.202Z,74.73
2024-01-03T01:28:43.812Z,74.55
2024-01-03T01:31:10.315Z,74.14
2024-01-03T01:33:36.975Z,73.30
2024-01-03T01:36:03.910Z,72.74
2024-01-03T01:38:30.509Z,72.64
2024-01-03T01:40:56.967Z,71.39
2024-01-03T01:43:23.461Z,71.15
2024-01-03T01:45:50.137Z,70.53
2024-01-03T01:48:18.009Z,69.65
2024-01-03T01:50:45.757Z,69.84
2024-01-03T01:53:14.659Z,69.20
2024-01-03T01:55:42.329Z,69.52
2024-01-03T01:58:10.180Z,68.88
2024-01-03T02:00:39.918Z,69.00
2024-01-03T02:03:08.879Z,68.68
2024-01-03T02:05:39.058Z,68.29
2024-01-03T02:08:09.105Z,67.36
2024-01-03T02:10:35.817Z,66.99
2024-01-03T02:13:02.284Z,67.18
2024-01-03T02:15:29.229Z,67.34
2024-01-03T02:18:00.853Z,67.52
2024-01-03T02:20:34.387Z,66.98
2024-01-03T02:23:01.719Z,66.92
2024-01-03T02:25:28.478Z,66.34
2024-01-03T02:27:55.000Z,66.63
2024-01-03T02:30:21.515Z,66.62
2024-01-03T02:32:48.189Z,66.61
2024-01-03T02:35:15.011Z,66.53
2024-01-03T02:37:41.579Z,66.75
2024-01-03T02:40:09.013Z,66.17
2024-01-03T02:42:35.424Z,66.20
2024-01-03T02:45:02.044Z,66.31
2024-01-03T02:47:28.799Z,65.99
2024-01-03T02:49:59.675Z,65.79
2024-01-03T02:52:27.291Z,65.12
2024-01-03T02:54:53.749Z,65.76
2024-01-03T02:57:20.494Z,65.68
2024-01-03T02:59:46.971Z,65.33
2024-01-03T03:02:13.560Z,65.08
2024-01-03T03:04:40.402Z,64.72
2024-01-03T03:07:06.939Z,64.74
2024-01-03T03:09:33.417Z,64.81
2024-01-03T03:11:59.915Z,64.18
2024-01-03T03:14:26.595Z,63.74
2024-01-03T03:16:53.164Z,63.71
2024-01-03T03:19:20.120Z,63.62
2024-01-03T03:21:46.795Z,63.33
2024-01-03T03:24:13.317Z,63.04
2024-01-03T03:26:39.880Z,62.77
2024-01-03T03:29:06.851Z,62.84
2024-01-03T03:31:33.313Z,62.39
2024-01-03T03:34:00.002Z,62.42
2024-01-03T03:36:26.698Z,62.32
2024-01-03T03:38:53.381Z,62.35
2024-01-03T03:41:21.392Z,62.43
2024-01-03T03:43:48.186Z,61.74
2024-01-03T03:46:17.716Z,62.24
2024-01-03T03:48:44.423Z,62.34
2024-01-03T03:51:11.529Z,61.97
2024-01-03T03:53:38.105Z,62.12
2024-01-03T03:56:05.278Z,61.83
2024-01-03T03:58:31.728Z,61.69
2024-01-03T04:00:58.296Z,61.20
2024-01-03T04:03:24.806Z,61.51
2024-01-03T04:05:51.528Z,61.27
2024-01-03T04:08:18.183Z,61.11
2024-01-03T04:10:44.772Z,61.42
2024-01-03T04:13:11.279Z,60.89
2024-01-03T04:15:37.758Z,60.46
2024-01-03T04:18:05.827Z,60.65
2024-01-03T04:20:32.833Z,60.55
2024-01-03T04:22:59.419Z,60.26
2024-01-03T04:25:25.892Z,60.46
2024-01-03T04:27:52.352Z,59.87
2024-01-03T04:30:18.837Z,59.15
2024-01-03T04:32:45.443Z,59.17
2024-01-03T04:35:12.135Z,59.43
2024-01-03T04:37:38.644Z,59.06
2024-01-03T04:40:06.123Z,59.11
2024-01-03T04:42:32.668Z,59.22
2024-01-03T04:44:59.197Z,58.78
2024-01-03T04:47:25.831Z,58.58
2024-01-03T04:49:52.502Z,58.72
2024-01-03T04:52:19.169Z,58.50
2024-01-03T04:54:45.646Z,58.17
2024-01-03T04:57:12.197Z,58.46
2024-01-03T04:59:38.706Z,58.86
2024-01-03T05:02:05.237Z,59.23
2024-01-03T05:04:31.878Z,59.01
2024-01-03T05:06:58.485Z,59.08
2024-01-03T05:09:24.982Z,59.12
2024-01-03T05:11:51.824Z,59.26
2024-01-03T05:14:18.662Z,58.97
2024-01-03T05:16:45.302Z,59.04
2024-01-03T05:19:11.981Z,59.16
2024-01-03T05:21:38.755Z,59.02
2024-01-03T05:24:06.218Z,59.89
2024-01-03T05:26:32.802Z,60.90
2024-01-03T05:28:59.358Z,60.44
2024-01-03T05:31:25.918Z,60.80
2024-01-03T05:33:53.154Z,61.46
2024-01-03T05:36:19.820Z,61.41
2024-01-03T05:38:46.451Z,61.61
2024-01-03T05:41:13.405Z,61.89
2024-01-03T05:43:40.105Z,62.09
2024-01-03T05:46:07.113Z,61.81
2024-01-03T05:48:34.247Z,61.42
2024-01-03T05:51:01.040Z,61.75
2024-01-03T05:53:27.692Z,62.00
2024-01-03T05:55:54.177Z,61.03
2024-01-03T05:58:20.651Z,60.80
2024-01-03T06:00:47.178Z,61.16
2024-01-03T06:03:13.793Z,61.48
2024-01-03T06:05:40.557Z,61.03
2024-01-03T06:08:08.138Z,61.05
2024-01-03T06:10:34.903Z,61.43
2024-01-03T06:13:01.412Z,61.42
2024-01-03T06:15:27.907Z,60.49
2024-01-03T06:17:54.674Z,60.17
2024-01-03T06:20:23.905Z,59.88
2024-01-03T06:22:51.162Z,60.74
2024-01-03T06:25:17.869Z,61.22
2024-01-03T06:27:44.459Z,62.03
2024-01-03T06:30:12.060Z,62.78
2024-01-03T06:32:38.951Z,64.05
2024-01-03T06:35:07.570Z,64.95
2024-01-03T06:37:34.080Z,65.96
2024-01-03T06:40:00.691Z,66.38
2024-01-03T06:42:27.373Z,66.95
2024-01-03T06:44:55.045Z,67.03
2024-01-03T06:47:21.781Z,67.92
2024-01-03T06:49:48.339Z,68.61
2024-01-03T06:52:14.976Z,68.37
2024-01-03T06:54:41.608Z,68.49
2024-01-03T06:57:08.142Z,68.69
2024-01-03T06:59:37.727Z,68.79
2024-01-03T07:02:04.631Z,69.00
2024-01-03T07:04:31.236Z,69.21
2024-01-03T07:06:58.589Z,70.04
2024-01-03T07:09:25.017Z,70.19
2024-01-03T07:11:51.695Z,70.35
2024-01-03T07:14:18.501Z,71.26
2024-01-03T07:16:47.729Z,71.09
2024-01-03T07:19:15.945Z,71.02
2024-01-03T07:21:42.609Z,71.28
2024-01-03T07:24:09.174Z,71.03
2024-01-03T07:26:36.586Z,70.64
2024-01-03T07:29:03.134Z,70.06
2024-01-03T07:31:29.616Z,69.77
2024-01-03T07:33:56.254Z,69.07
2024-01-03T07:36:22.956Z,68.20
2024-01-03T07:38:49.453Z,67.57
2024-01-03T07:41:20.718Z,66.69
2024-01-03T07:43:47.582Z,66.40
2024-01-03T07:46:18.267Z,66.37
2024-01-03T07:48:45.098Z,66.09
2024-01-03T07:51:12.934Z,65.55
2024-01-03T07:53:39.563Z,65.56
2024-01-03T07:56:09.933Z,65.26
2024-01-03T07:58:36.776Z,64.87
2024-01-03T08:01:03.778Z,64.38
2024-01-03T08:03:30.755Z,64.89
2024-01-03T08:05:57.541Z,64.76
2024-01-03T08:08:24.594Z,64.44
2024-01-03T08:10:51.092Z,64.31
2024-01-03T08:13:17.895Z,63.51
2024-01-03T08:15:44.425Z,63.69
2024-01-03T08:18:11.493Z,62.80
2024-01-03T08:20:38.635Z,62.95
2024-01-03T08:23:05.333Z,62.39
2024-01-03T08:25:31.794Z,61.38
2024-01-03T08:27:58.317Z,60.68
2024-01-03T08:30:25.176Z,60.74
2024-01-03T08:32:51.875Z,59.85
2024-01-03T08:35:18.456Z,59.58
2024-01-03T08:37:45.073Z,59.29
2024-01-03T08:40:12.648Z,59.27
2024-01-03T08:42:39.155Z,58.97
2024-01-03T08:45:06.663Z,58.26
2024-01-03T08:47:33.637Z,57.41
2024-01-03T08:50:00.617Z,58.31
2024-01-03T08:52:27.368Z,58.88
2024-01-03T08:54:53.893Z,59.50
2024-01-03T08:57:20.406Z,59.86
2024-01-03T08:59:46.946Z,60.65
2024-01-03T09:02:14.291Z,61.52
2024-01-03T09:04:42.259Z,61.34
2024-01-03T09:07:08.803Z,62.38
2024-01-03T09:09:35.527Z,62.33
2024-01-03T09:12:02.244Z,62.26
2024-01-03T09:14:29.137Z,61.48
2024-01-03T09:16:56.178Z,60.94
2024-01-03T09:19:22.910Z,59.53
2024-01-03T09:21:49.573Z,58.74
2024-01-03T09:24:16.111Z,58.12
2024-01-03T09:26:42.684Z,57.58
2024-01-03T09:29:09.694Z,57.23
2024-01-03T09:31:44.489Z,56.74
2024-01-03T09:34:11.485Z,55.94
2024-01-03T09:36:38.155Z,55.44
2024-01-03T09:39:04.793Z,55.33
2024-01-03T09:41:32.703Z,54.50
2024-01-03T09:44:00.874Z,55.02
2024-01-03T09:46:27.400Z,55.21
2024-01-03T09:48:54.218Z,55.23
2024-01-03T09:51:21.510Z,55.72
2024-01-03T09:53:52.519Z,55.38
2024-01-03T09:56:19.195Z,55.57
2024-01-03T09:58:47.664Z,55.75
2024-01-03T10:01:14.219Z,55.77
2024-01-03T10:03:40.979Z,55.58
2024-01-03T10:06:17.841Z,55.37
2024-01-03T10:09:04.911Z,56.16
2024-01-03T10:11:31.980Z,57.09
2024-01-03T10:14:16.273Z,58.10
2024-01-03T10:16:45.627Z,59.33
2024-01-03T10:19:16.883Z,58.92
2024-01-03T10:21:54.406Z,58.53
2024-01-03T10:24:24.763Z,59.83
2024-01-03T10:26:52.593Z,60.18
2024-01-03T10:29:20.272Z,60.57
2024-01-03T10:31:48.274Z,61.47
2024-01-03T10:34:22.127Z,61.90
2024-01-03T10:36:50.997Z,62.54
2024-01-03T10:39:19.840Z,59.64
2024-01-03T10:41:48.478Z,54.46
2024-01-03T10:44:19.941Z,51.35
2024-01-03T10:46:50.731Z,51.26
2024-01-03T10:49:18.432Z,51.69
2024-01-03T10:51:50.316Z,51.86
2024-01-03T10:54:20.319Z,52.43
2024-01-03T10:56:49.623Z,53.57
2024-01-03T10:59:16.928Z,53.75
2024-01-03T11:02:02.148Z,54.67
2024-01-03T11:04:55.058Z,51.20
2024-01-03T11:07:21.553Z,53.96
2024-01-03T11:09:48.066Z,55.47
2024-01-03T11:12:14.907Z,57.05
2024-01-03T11:14:41.643Z,58.22
2024-01-03T11:17:11.253Z,58.23
2024-01-03T11:19:40.141Z,54.86
2024-01-03T11:22:07.125Z,54.16
2024-01-03T11:24:33.767Z,55.01
2024-01-03T11:27:07.412Z,54.85
2024-01-03T11:29:38.434Z,53.34
2024-01-03T11:32:07.624Z,47.77
2024-01-03T11:34:43.821Z,46.66
2024-01-03T11:37:10.374Z,45.36
2024-01-03T11:39:41.328Z,48.22
2024-01-03T11:42:08.658Z,44.22
2024-01-03T11:44:36.167Z,40.30
2024-01-03T11:47:04.971Z,39.26
2024-01-03T11:49:32.902Z,37.17
2024-01-03T11:52:00.762Z,40.81
2024-01-03T11:54:28.321Z,41.58
2024-01-03T11:56:58.021Z,37.94
2024-01-03T11:59:25.813Z,35.55
2024-01-03T12:01:57.407Z,35.35
2024-01-03T12:04:23.962Z,37.97
2024-01-03T12:06:51.282Z,41.11
2024-01-03T12:09:18.660Z,43.02
2024-01-03T12:11:46.285Z,45.61
2024-01-03T12:14:19.408Z,47.43
2024-01-03T12:16:50.271Z,48.82
2024-01-03T12:19:28.122Z,50.72
2024-01-03T12:22:00.372Z,51.96
2024-01-03T12:24:40.844Z,52.47
2024-01-03T12:27:08.772Z,48.55
2024-01-03T12:29:40.365Z,44.92
2024-01-03T12:32:16.604Z,42.48
2024-01-03T12:34:44.976Z,41.58
2024-01-03T12:37:13.097Z,43.52
2024-01-03T12:39:41.370Z,45.13
2024-01-03T12:42:16.541Z,46.81
2024-01-03T12:44:44.986Z,48.08
2024-01-03T12:47:12.185Z,49.06
2024-01-03T12:49:41.381Z,50.00
2024-01-03T12:52:10.171Z,51.11
2024-01-03T12:54:38.091Z,47.19
2024-01-03T12:57:08.024Z,45.83
2024-01-03T12:59:37.788Z,44.74
2024-01-03T13:02:06.868Z,42.13
2024-01-03T13:04:35.437Z,42.36
2024-01-03T13:07:02.144Z,45.49
2024-01-03T13:09:28.665Z,43.53
2024-01-03T13:11:55.188Z,44.28
2024-01-03T13:14:21.755Z,45.06
2024-01-03T13:16:48.299Z,47.98
2024-01-03T13:19:16.375Z,49.31
2024-01-03T13:21:45.374Z,49.51
2024-01-03T13:24:13.366Z,50.74
2024-01-03T13:26:40.109Z,51.95
2024-01-03T13:29:07.385Z,51.93
2024-01-03T13:31:34.122Z,50.03
2024-01-03T13:34:01.270Z,47.30
2024-01-03T13:36:28.261Z,44.37
2024-01-03T13:38:55.076Z,43.96
2024-01-03T13:41:21.778Z,41.48
2024-01-03T13:43:48.698Z,41.03
2024-01-03T13:46:15.854Z,40.24
2024-01-03T13:48:43.171Z,40.28
2024-01-03T13:51:10.156Z,43.18
2024-01-03T13:53:36.813Z,43.96
2024-01-03T13:56:05.360Z,45.48
2024-01-03T13:58:36.441Z,46.40
2024-01-03T14:01:02.940Z,47.91
2024-01-03T14:03:29.676Z,49.51
2024-01-03T14:05:56.321Z,50.94
2024-01-03T14:08:23.034Z,51.87
2024-01-03T14:10:49.593Z,52.87
2024-01-03T14:13:16.083Z,53.43
2024-01-03T14:15:42.611Z,54.46
2024-01-03T14:18:09.617Z,54.53
2024-01-03T14:20:38.057Z,55.17
2024-01-03T14:23:05.138Z,55.38
2024-01-03T14:25:31.615Z,55.60
2024-01-03T14:27:58.233Z,55.65
2024-01-03T14:30:25.658Z,56.02
2024-01-03T14:32:54.118Z,56.44
2024-01-03T14:35:21.597Z,57.00
2024-01-03T14:37:48.112Z,56.96
2024-01-03T14:40:18.302Z,56.73
2024-01-03T14:42:52.217Z,56.95
2024-01-03T14:45:19.382Z,57.07
2024-01-03T14:47:46.973Z,57.51
2024-01-03T14:50:17.026Z,57.67
2024-01-03T14:52:43.574Z,58.02
2024-01-03T14:55:12.000Z,58.74
2024-01-03T14:57:39.178Z,59.00
2024-01-03T15:00:07.013Z,58.80
2024-01-03T15:02:33.907Z,58.61
2024-01-03T15:05:01.384Z,58.68
2024-01-03T15:07:28.898Z,58.83
2024-01-03T15:09:55.511Z,59.07
2024-01-03T15:12:23.288Z,58.75
2024-01-03T15:14:50.123Z,58.86
2024-01-03T15:17:16.834Z,59.03
2024-01-03T15:19:46.055Z,58.71
2024-01-03T15:22:17.433Z,58.67
2024-01-03T15:24:47.278Z,57.91
2024-01-03T15:27:14.284Z,57.41
2024-01-03T15:29:42.646Z,57.52
2024-01-03T15:32:10.152Z,56.63
2024-01-03T15:34:41.330Z,56.87
2024-01-03T15:37:11.678Z,56.80
2024-01-03T15:39:39.207Z,56.87
2024-01-03T15:42:11.374Z,56.75
2024-01-03T15:44:40.412Z,56.80
2024-01-03T15:47:07.708Z,56.75
2024-01-03T15:49:35.119Z,56.55
2024-01-03T15:52:08.386Z,56.51
2024-01-03T15:54:45.705Z,56.62
2024-01-03T15:57:15.083Z,56.18
2024-01-03T15:59:41.838Z,56.38
2024-01-03T16:02:08.870Z,56.36
2024-01-03T16:04:35.645Z,56.69
2024-01-03T16:07:02.875Z,56.47
2024-01-03T16:09:29.473Z,56.83
2024-01-03T16:11:56.137Z,56.97
2024-01-03T16:14:24.932Z,56.88
2024-01-03T16:16:52.170Z,56.69
2024-01-03T16:19:21.609Z,57.26
2024-01-03T16:21:50.977Z,57.17
2024-01-03T16:24:19.467Z,56.83
2024-01-03T16:26:49.724Z,57.19
2024-01-03T16:29:16.346Z,57.09
2024-01-03T16:32:11.624Z,57.26
2024-01-03T16:34:38.881Z,57.77
2024-01-03T16:37:13.001Z,57.90
2024-01-03T16:39:39.686Z,58.68
2024-01-03T16:42:06.486Z,59.03
2024-01-03T16:44:33.280Z,59.41
2024-01-03T16:47:00.105Z,59.07
2024-01-03T16:49:27.162Z,59.68
2024-01-03T16:51:57.652Z,60.47
2024-01-03T16:54:28.377Z,60.95
2024-01-03T16:56:56.404Z,61.31
2024-01-03T16:59:24.573Z,61.51
2024-01-03T17:01:51.459Z,62.32
2024-01-03T17:04:18.660Z,62.74
2024-01-03T17:06:46.663Z,62.89
2024-01-03T17:09:15.528Z,63.11
2024-01-03T17:11:42.320Z,63.07
2024-01-03T17:14:09.154Z,63.83
2024-01-03T17:16:37.481Z,65.94
2024-01-03T17:19:04.619Z,66.56
2024-01-03T17:21:33.385Z,68.67
2024-01-03T17:24:01.392Z,68.96
2024-01-03T17:26:31.617Z,70.07
2024-01-03T17:28:59.948Z,70.60
2024-01-03T17:31:28.083Z,71.11
2024-01-03T17:33:56.273Z,71.40
2024-01-03T17:36:23.093Z,71.62
2024-01-03T17:38:50.702Z,71.83
2024-01-03T17:41:25.819Z,72.63
2024-01-03T17:43:52.834Z,72.57
2024-01-03T17:46:19.617Z,73.00
2024-01-03T17:48:51.089Z,72.99
2024-01-03T17:51:20.424Z,74.39
2024-01-03T17:53:50.824Z,74.27
2024-01-03T17:56:25.358Z,74.37
2024-01-03T17:58:52.465Z,74.76
2024-01-03T18:01:19.999Z,75.10
2024-01-03T18:03:46.871Z,75.33
2024-01-03T18:06:14.909Z,76.06
2024-01-03T18:08:42.114Z,75.91
2024-01-03T18:11:08.985Z,75.68
2024-01-03T18:13:36.472Z,75.80
2024-01-03T18:16:03.148Z,75.14
2024-01-03T18:18:29.835Z,74.93
2024-01-03T18:20:56.617Z,74.89
2024-01-03T18:23:23.513Z,74.21
2024-01-03T18:25:50.637Z,73.88
2024-01-03T18:28:17.388Z,74.09
2024-01-03T18:30:46.153Z,74.36
2024-01-03T18:33:13.481Z,73.64
2024-01-03T18:35:40.368Z,73.89
2024-01-03T18:38:08.394Z,73.56
2024-01-03T18:40:35.201Z,73.66
2024-01-03T18:43:04.046Z,74.37
2024-01-03T18:45:31.711Z,74.31
2024-01-03T18:47:58.756Z,74.28
2024-01-03T18:50:25.904Z,74.20
2024-01-03T18:52:52.620Z,74.79
2024-01-03T18:55:20.996Z,74.61
2024-01-03T18:57:48.997Z,73.98
2024-01-03T19:00:16.884Z,73.99
2024-01-03T19:02:43.543Z,73.98
2024-01-03T19:05:12.191Z,73.64
2024-01-03T19:07:39.597Z,73.83
2024-01-03T19:10:08.124Z,73.78
2024-01-03T19:12:34.610Z,73.76
2024-01-03T19:15:01.647Z,73.27
2024-01-03T19:17:28.554Z,73.28
2024-01-03T19:19:55.346Z,73.02
2024-01-03T19:22:21.979Z,72.46
2024-01-03T19:24:48.466Z,72.64
2024-01-03T19:27:15.020Z,72.39
2024-01-03T19:29:41.545Z,71.95
2024-01-03T19:32:08.106Z,72.32
2024-01-03T19:34:34.658Z,72.12
2024-01-03T19:37:01.245Z,71.43
2024-01-03T19:39:27.879Z,71.39
2024-01-03T19:41:54.481Z,71.86
2024-01-03T19:44:21.179Z,71.16
2024-01-03T19:46:47.649Z,71.53
2024-01-03T19:49:15.031Z,71.22
2024-01-03T19:51:42.000Z,70.87
2024-01-03T19:54:10.345Z,70.36
2024-01-03T19:56:41.921Z,70.48
2024-01-03T19:59:08.776Z,70.55
2024-01-03T20:01:35.456Z,70.42
2024-01-03T20:04:02.053Z,70.32
2024-01-03T20:06:29.534Z,69.55
2024-01-03T20:08:59.273Z,70.16
2024-01-03T20:11:25.907Z,70.26
2024-01-03T20:13:52.528Z,69.87
2024-01-03T20:16:19.586Z,70.12
2024-01-03T20:18:46.451Z,69.56
2024-01-03T20:21:13.388Z,69.68
2024-01-03T20:23:41.665Z,69.41
2024-01-03T20:26:16.892Z,69.35
2024-01-03T20:28:45.418Z,69.39
2024-01-03T20:31:16.112Z,69.83
2024-01-03T20:33:42.866Z,69.18
2024-01-03T20:36:10.006Z,68.91
2024-01-03T20:38:37.295Z,68.87
2024-01-03T20:41:05.436Z,68.99
2024-01-03T20:43:36.902Z,68.91
2024-01-03T20:46:04.893Z,68.74
2024-01-03T20:48:33.812Z,68.90
2024-01-03T20:51:00.856Z,69.00
2024-01-03T20:53:30.677Z,68.92
2024-01-03T20:55:58.410Z,68.65
2024-01-03T20:58:25.613Z,68.46
2024-01-03T21:00:53.869Z,68.17
2024-01-03T21:03:20.834Z,68.66
2024-01-03T21:05:47.590Z,68.75
2024-01-03T21:08:14.679Z,68.51
2024-01-03T21:10:41.127Z,68.23
2024-01-03T21:13:07.629Z,68.60
2024-01-03T21:15:37.185Z,68.88
2024-01-03T21:18:04.686Z,68.26
2024-01-03T21:20:31.518Z,68.35
2024-01-03T21:22:58.207Z,68.01
2024-01-03T21:25:24.678Z,67.44
2024-01-03T21:27:52.427Z,67.94
2024-01-03T21:30:20.820Z,67.69
2024-01-03T21:32:48.077Z,67.69
2024-01-03T21:35:14.896Z,67.84
2024-01-03T21:37:41.405Z,67.48
2024-01-03T21:40:08.826Z,67.09
2024-01-03T21:42:35.331Z,67.44
2024-01-03T21:45:03.307Z,66.95
2024-01-03T21:47:30.227Z,66.41
2024-01-03T21:49:56.959Z,66.10
2024-01-03T21:52:23.663Z,66.01
2024-01-03T21:54:50.240Z,65.96
2024-01-03T21:57:16.902Z,66.06
2024-01-03T21:59:43.689Z,66.13
2024-01-03T22:02:10.434Z,65.70
2024-01-03T22:04:36.992Z,64.73
2024-01-03T22:07:03.719Z,64.80
2024-01-03T22:09:30.520Z,64.59
2024-01-03T22:11:58.935Z,64.83
2024-01-03T22:14:32.220Z,64.98
2024-01-03T22:16:59.447Z,65.12
2024-01-03T22:19:26.116Z,65.12
2024-01-03T22:21:53.084Z,65.53
2024-01-03T22:24:20.274Z,65.01
2024-01-03T22:26:47.185Z,64.44
2024-01-03T22:29:13.911Z,64.12
2024-01-03T22:31:40.897Z,64.25
2024-01-03T22:34:07.602Z,63.38
2024-01-03T22:36:34.387Z,62.73
2024-01-03T22:39:01.121Z,62.50
2024-01-03T22:41:29.672Z,62.93
2024-01-03T22:43:56.706Z,63.04
2024-01-03T22:46:25.322Z,62.68
2024-01-03T22:48:51.904Z,63.06
2024-01-03T22:51:18.844Z,63.11
2024-01-03T22:53:46.490Z,63.48
2024-01-03T22:56:13.049Z,63.93
2024-01-03T22:58:40.412Z,63.48
2024-01-03T23:01:06.855Z,63.46
2024-01-03T23:03:34.946Z,64.05
2024-01-03T23:06:01.649Z,64.32
2024-01-03T23:08:28.429Z,64.09
2024-01-03T23:10:54.922Z,64.34
2024-01-03T23:13:21.729Z,63.87
2024-01-03T23:15:48.236Z,64.34
2024-01-03T23:18:15.529Z,64.49
2024-01-03T23:20:42.304Z,64.44
2024-01-03T23:23:10.868Z,64.50
2024-01-03T23:25:38.163Z,64.41
2024-01-03T23:28:05.127Z,64.57
2024-01-03T23:30:31.804Z,64.33
2024-01-03T23:32:58.573Z,64.05
2024-01-03T23:35:25.249Z,64.45
2024-01-03T23:37:51.807Z,64.12
2024-01-03T23:40:21.638Z,64.39
2024-01-03T23:42:49.480Z,64.72
2024-01-03T23:45:16.026Z,64.99
2024-01-03T23:47:43.030Z,65.22
2024-01-03T23:50:10.086Z,65.16
2024-01-03T23:52:36.689Z,65.14
2024-01-03T23:55:03.285Z,65.13
2024-01-03T23:57:29.764Z,65.01
2024-01-03T23:59:56.320Z,65.17
